< < Back
Terminal Aerodrome Forecast


Current Version              Previous Versions:   1  2  3  4  5  6  7  8  9  

Terminal Aerodrome Forecast

735
FTUS44 KMOB 271541 AAA
TAFMOB
TAF AMD
KMOB 271541Z 2716/2812 34015G21KT P6SM FEW017 SCT200
     FM272000 31010KT P6SM SKC
     FM280600 34005KT P6SM SKC=

Latest METAR

699
SAUS80 KWBC 280100
MTRMOB
METAR KMOB 280056Z 34011KT 10SM FEW250 14/01 A3005 RMK AO2 SLP174
T01440011


USA.gov is the U.S. government's official web portal to all federal, state and local government web resources and services.